Meteo Giornale » Osservazioni meteo Stati Uniti (USA) » Tracy
ore: 21:55 - Osservazioni Meteo Tracy
Lat. 44° 15' N Lon. 95° 37' W Alt. 408 metri s.l.m.
21 °C
Sereno
Temp. 24 Ore
20 °C
30 °C
Sud
9.3 Km/h
Dew point 17 °C
Umidità 77 %
Visibilità 10 Km
Il sole sorge alle ore 06:44
Il sole tramonta alle ore 20:00
| Data e Ora | Cielo e Fenomeni | T °C | DP °C | Um. % | Pres. hPa | Vis. km | Vento km/h | |
|---|---|---|---|---|---|---|---|---|
| Oggi h: 21:55 | Sereno | 21 | 17 | 77 | 1014 | 10 | S 9.3 | |
| Oggi h: 21:35 | Sereno | 21 | 17 | 77 | 1014 | 10 | N 5.5 | |
| Oggi h: 21:25 | Sereno | 21 | 17 | 77 | 1014 | 10 | S 7.4 | |
| Oggi h: 21:00 | Sereno | 21 | 17 | 77 | 1013 | 10 | N 5.5 | |
| Oggi h: 20:35 | Sereno | 21 | 17 | 77 | 1013 | 10 | N 0 | |
| Oggi h: 20:15 | Sereno | 23 | 17 | 68 | 1013 | 10 | N 5.5 | |
| Oggi h: 19:55 | Sereno | 23 | 18 | 73 | 1013 | 10 | N 5.5 | |
| Oggi h: 19:45 | Sereno | 24 | 17 | 64 | 1013 | 10 | N 5.5 | |
| Oggi h: 19:20 | Sereno | 25 | 17 | 61 | 1013 | 10 | NE 7.4 | |
| Oggi h: 18:55 | Sereno | 26 | 17 | 57 | 1013 | 10 | N 5.5 | |
| Oggi h: 18:35 | Sereno | 27 | 15 | 47 | 1013 | 10 | NE 9.3 | |
| Oggi h: 18:15 | Sereno | 28 | 14 | 42 | 1013 | 10 | NE 9.3 | |
| Oggi h: 17:55 | Sereno | 28 | 14 | 42 | 1013 | 10 | NE 11.1 | |
| Oggi h: 17:45 | Sereno | 29 | 14 | 39 | 1013 | 10 | NE 9.3 | |
| Oggi h: 17:20 | Sereno | 28 | 15 | 45 | 1013 | 10 | N/NE 9.3 | |
| Oggi h: 16:55 | Sereno | 29 | 14 | 39 | 1013 | 10 | N 9.3 | |
| Oggi h: 16:35 | Sereno | 29 | 13 | 37 | 1013 | 10 | N/NO 9.3 | |
| Oggi h: 16:15 | Sereno | 29 | 13 | 37 | 1013 | 10 | N/NO 9.3 | |
| Oggi h: 15:55 | Sereno | 30 | 12 | 33 | 1013 | 10 | N 11.1 | |
| Oggi h: 15:40 | Sereno | 30 | 12 | 33 | 1013 | 10 | N/NO 11.1 | |
| Oggi h: 15:15 | Sereno | 30 | 11 | 30 | 1013 | 10 | N/NO 14.8 | |
| Oggi h: 14:55 | Sereno | 29 | 13 | 37 | 1013 | 10 | N 13 | |
| Oggi h: 14:35 | Sereno | 29 | 12 | 35 | 1013 | 10 | N 9.3 | |
| Oggi h: 14:15 | Sereno | 29 | 12 | 35 | 1013 | 10 | N 11.1 | |
| Oggi h: 14:05 | Sereno | 29 | 10 | 30 | 1013 | 10 | N/NO 11.1 | |
| Oggi h: 13:40 | Sereno | 28 | 13 | 39 | 1013 | 10 | N 7.4 | |
| Oggi h: 13:15 | Sereno | 28 | 14 | 42 | 1013 | 10 | N/NO 14.8 | |
| Oggi h: 12:55 | Sereno | 27 | 16 | 50 | 1013 | 10 | N/NO 14.8 | |
| Oggi h: 12:35 | Sereno | 27 | 17 | 54 | 1013 | 10 | N/NO 14.8 | |
| Oggi h: 12:25 | Sereno | 27 | 17 | 54 | 1013 | 10 | N/NO 13 | |
| Oggi h: 12:00 | Sereno | 26 | 17 | 57 | 1013 | 10 | N/NO 13 | |
| Oggi h: 11:35 | Sereno | 25 | 17 | 61 | 1013 | 10 | N/NO 14.8 | |
| Oggi h: 11:15 | Sereno | 25 | 18 | 65 | 1013 | 10 | NO 18.5 | |
| Oggi h: 10:55 | Sereno | 24 | 18 | 69 | 1013 | 10 | N/NO 18.5 | |
| Oggi h: 10:45 | Sereno | 23 | 18 | 73 | 1013 | 10 | N/NO 9.3 | |
| Oggi h: 10:25 | Sereno | 22 | 18 | 78 | 1013 | 10 | N/NO 14.8 | |
| Oggi h: 10:00 | Sereno | 22 | 18 | 78 | 1012 | 10 | N/NO 16.7 | |
| Oggi h: 09:35 | Sereno | 22 | 19 | 83 | 1012 | 10 | NO 16.7 | |
| Oggi h: 09:15 | Sereno | 22 | 20 | 88 | 1012 | 10 | N/NO 16.7 | |
| Oggi h: 08:55 | Sereno | 22 | 20 | 88 | 1012 | 10 | NO 16.7 | |
| Oggi h: 08:45 | Sereno | 22 | 21 | 94 | 1011 | 10 | N/NO 13 | |
| Oggi h: 08:20 | Sereno | 22 | 21 | 94 | 1011 | 10 | NO 14.8 | |
| Oggi h: 07:55 | Sereno | 22 | 21 | 94 | 1011 | 10 | O/NO 13 | |
| Oggi h: 07:35 | Sereno | 21 | 21 | 100 | 1010 | 10 | O/NO 14.8 | |
| Oggi h: 07:15 | Sereno | 20 | 20 | 100 | 1010 | 14 | O 13 | |
| Oggi h: 06:55 | Sereno | 21 | 21 | 100 | 1010 | 10 | O 14.8 | |
| Oggi h: 06:35 | Sereno | 21 | 21 | 100 | 1010 | 10 | O 13 | |
| Oggi h: 06:15 | Sereno | 21 | 21 | 100 | 1009 | 10 | O 13 | |
| Oggi h: 06:05 | Sereno | 21 | 21 | 100 | 1009 | 10 | O 13 | |
| Oggi h: 05:45 | Sereno | 21 | 21 | 100 | 1009 | 10 | O 13 | |
| Oggi h: 05:25 | Sereno | 22 | 21 | 94 | 1009 | 10 | O/NO 9.3 | |
| Oggi h: 05:00 | Sereno | 21 | 21 | 100 | 1009 | 10 | O/NO 13 | |
| Oggi h: 04:40 | Sereno | 21 | 21 | 100 | 1008 | 10 | O/NO 11.1 | |
| Oggi h: 04:15 | Sereno | 22 | 21 | 94 | 1008 | 10 | O 16.7 | |
| Oggi h: 03:55 | Sereno | 24 | 21 | 83 | 1008 | 10 | O/NO 13 | |
| Oggi h: 03:35 | Sereno | 24 | 22 | 88 | 1007 | 10 | S/SO 20.3 | |
| Oggi h: 03:15 | Sereno | 24 | 22 | 88 | 1007 | 10 | SO 24 | |
| Oggi h: 02:55 | Sereno | 24 | 22 | 88 | 1007 | 10 | SO 16.7 | |
| Oggi h: 02:45 | Sereno | 24 | 22 | 88 | 1007 | 10 | SO 20.3 | |
| Oggi h: 02:20 | Sereno | 24 | 23 | 94 | 1007 | 10 | SO 18.5 | |
| Oggi h: 01:55 | Sereno | 24 | 23 | 94 | 1007 | 10 | SO 20.3 | |
| Oggi h: 01:35 | Sereno | 24 | 23 | 94 | 1007 | 10 | S/SO 18.5 | |
| Oggi h: 01:15 | Sereno | 24 | 23 | 94 | 1007 | 10 | S/SO 18.5 | |
| Oggi h: 00:55 | Sereno | 25 | 23 | 88 | 1007 | 10 | S/SO 16.7 | |
| Oggi h: 00:45 | Sereno | 25 | 23 | 88 | 1007 | 10 | S/SO 16.7 | |
| Oggi h: 00:20 | Sereno | 25 | 23 | 88 | 1007 | 10 | S/SO 18.5 | |
| Oggi h: 00:00 | Sereno | 25 | 23 | 88 | 1007 | 10 | S/SO 18.5 | |
| Ieri h: 23:35 | Sereno | 26 | 23 | 83 | 1007 | 10 | S/SO 16.7 | |
| Ieri h: 23:15 | Sereno | 26 | 23 | 83 | 1007 | 10 | S/SO 18.5 | |
| Ieri h: 22:55 | Sereno | 26 | 23 | 83 | 1007 | 10 | S/SO 16.7 | |
| Ieri h: 22:40 | Sereno | 26 | 23 | 83 | 1007 | 10 | S/SO 20.3 | |



